sensor_id;sensor_type;location;lat;lon;timestamp;pressure;altitude;pressure_sealevel;temperature;humidity
25610;BME280;13479;49.044;8.716;2024-03-02T05:02:44;97861.00;;;6.57;78.96
25610;BME280;13479;49.044;8.716;2024-03-02T05:05:09;97852.91;;;6.48;79.48
25610;BME280;13479;49.044;8.716;2024-03-02T05:07:35;97808.50;;;6.34;79.91
25610;BME280;13479;49.044;8.716;2024-03-02T05:10:00;97809.34;;;6.44;79.96
25610;BME280;13479;49.044;8.716;2024-03-02T05:12:25;97798.22;;;6.31;80.21
25610;BME280;13479;49.044;8.716;2024-03-02T05:15:09;97795.88;;;6.38;80.15
25610;BME280;13479;49.044;8.716;2024-03-02T05:17:36;97794.88;;;6.29;80.78
25610;BME280;13479;49.044;8.716;2024-03-02T05:20:02;97802.66;;;6.40;79.64
25610;BME280;13479;49.044;8.716;2024-03-02T05:22:27;97856.53;;;6.57;78.84
25610;BME280;13479;49.044;8.716;2024-03-02T05:24:52;97883.88;;;6.56;78.33
25610;BME280;13479;49.044;8.716;2024-03-02T05:27:18;97906.78;;;6.56;78.87
25610;BME280;13479;49.044;8.716;2024-03-02T05:29:43;97920.38;;;6.61;77.91
25610;BME280;13479;49.044;8.716;2024-03-02T05:32:08;97922.06;;;6.52;78.15
25610;BME280;13479;49.044;8.716;2024-03-02T05:34:33;97866.13;;;6.17;79.78
25610;BME280;13479;49.044;8.716;2024-03-02T05:37:00;97796.19;;;6.03;80.23
25610;BME280;13479;49.044;8.716;2024-03-02T05:39:26;97761.16;;;5.92;81.23
25610;BME280;13479;49.044;8.716;2024-03-02T05:41:51;97761.13;;;6.13;80.47
25610;BME280;13479;49.044;8.716;2024-03-02T05:44:16;97799.88;;;6.32;79.96
25610;BME280;13479;49.044;8.716;2024-03-02T05:46:42;97831.91;;;6.27;79.48
25610;BME280;13479;49.044;8.716;2024-03-02T05:49:08;97843.56;;;6.25;79.75
25610;BME280;13479;49.044;8.716;2024-03-02T05:51:33;97827.56;;;6.16;79.95
25610;BME280;13479;49.044;8.716;2024-03-02T05:53:58;97805.13;;;6.12;80.16
25610;BME280;13479;49.044;8.716;2024-03-02T05:56:23;97783.41;;;5.99;80.34
25610;BME280;13479;49.044;8.716;2024-03-02T05:58:49;97749.97;;;5.90;81.00
25610;BME280;13479;49.044;8.716;2024-03-02T06:01:34;97745.91;;;5.85;81.55
25610;BME280;13479;49.044;8.716;2024-03-02T06:03:59;97744.25;;;5.84;81.91
25610;BME280;13479;49.044;8.716;2024-03-02T06:06:25;97758.63;;;5.80;81.67
25610;BME280;13479;49.044;8.716;2024-03-02T06:08:50;97774.03;;;5.75;81.92
25610;BME280;13479;49.044;8.716;2024-03-02T06:11:16;97763.31;;;5.67;82.67
25610;BME280;13479;49.044;8.716;2024-03-02T06:13:41;97767.63;;;5.68;83.02
25610;BME280;13479;49.044;8.716;2024-03-02T06:16:07;97792.88;;;5.80;83.00
25610;BME280;13479;49.044;8.716;2024-03-02T06:18:33;97813.56;;;5.85;82.55
25610;BME280;13479;49.044;8.716;2024-03-02T06:20:58;97839.78;;;5.86;81.72
25610;BME280;13479;49.044;8.716;2024-03-02T06:23:24;97860.69;;;5.88;81.95
25610;BME280;13479;49.044;8.716;2024-03-02T06:25:49;97853.19;;;5.83;81.58
25610;BME280;13479;49.044;8.716;2024-03-02T06:28:15;97868.50;;;5.90;81.38
25610;BME280;13479;49.044;8.716;2024-03-02T06:30:41;97880.69;;;5.91;81.44
25610;BME280;13479;49.044;8.716;2024-03-02T06:33:07;97875.94;;;5.84;81.44
25610;BME280;13479;49.044;8.716;2024-03-02T06:35:32;97889.03;;;5.96;80.69
25610;BME280;13479;49.044;8.716;2024-03-02T06:37:57;97908.00;;;5.90;80.29
25610;BME280;13479;49.044;8.716;2024-03-02T06:40:23;97884.81;;;5.83;81.12
25610;BME280;13479;49.044;8.716;2024-03-02T06:42:48;97857.09;;;5.89;81.07
25610;BME280;13479;49.044;8.716;2024-03-02T06:45:13;97900.72;;;6.03;80.05
25610;BME280;13479;49.044;8.716;2024-03-02T06:47:38;97913.25;;;6.11;79.61
25610;BME280;13479;49.044;8.716;2024-03-02T06:50:04;97919.81;;;6.16;79.40
25610;BME280;13479;49.044;8.716;2024-03-02T06:52:29;97912.59;;;6.18;80.03
25610;BME280;13479;49.044;8.716;2024-03-02T06:54:54;97900.66;;;6.14;80.16
25610;BME280;13479;49.044;8.716;2024-03-02T06:57:20;97884.59;;;6.17;80.06
25610;BME280;13479;49.044;8.716;2024-03-02T06:59:46;97880.84;;;6.20;79.93
25610;BME280;13479;49.044;8.716;2024-03-02T07:02:11;97886.41;;;6.27;79.93
25610;BME280;13479;49.044;8.716;2024-03-02T07:04:37;97913.56;;;6.17;80.45
25610;BME280;13479;49.044;8.716;2024-03-02T07:07:02;97867.19;;;6.05;81.21
25610;BME280;13479;49.044;8.716;2024-03-02T07:09:28;97825.31;;;6.02;81.38
25610;BME280;13479;49.044;8.716;2024-03-02T07:11:53;97813.16;;;6.21;81.28
25610;BME280;13479;49.044;8.716;2024-03-02T07:14:18;97892.03;;;6.43;79.63
25610;BME280;13479;49.044;8.716;2024-03-02T07:16:43;97970.06;;;6.56;78.16
25610;BME280;13479;49.044;8.716;2024-03-02T07:19:09;97994.50;;;6.58;77.83
25610;BME280;13479;49.044;8.716;2024-03-02T07:21:34;97993.81;;;6.56;77.87
25610;BME280;13479;49.044;8.716;2024-03-02T07:23:59;97950.44;;;6.39;78.41
25610;BME280;13479;49.044;8.716;2024-03-02T07:26:27;97911.97;;;6.36;78.78
25610;BME280;13479;49.044;8.716;2024-03-02T07:28:53;97880.72;;;6.62;78.80
25610;BME280;13479;49.044;8.716;2024-03-02T07:31:18;97975.88;;;6.90;76.65
25610;BME280;13479;49.044;8.716;2024-03-02T07:33:44;98011.44;;;6.96;76.55
25610;BME280;13479;49.044;8.716;2024-03-02T07:36:10;98017.16;;;7.11;75.87
25610;BME280;13479;49.044;8.716;2024-03-02T07:38:36;97989.16;;;7.30;76.01
25610;BME280;13479;49.044;8.716;2024-03-02T07:41:01;98080.34;;;8.61;72.59
25610;BME280;13479;49.044;8.716;2024-03-02T07:43:26;98096.31;;;10.09;67.13
25610;BME280;13479;49.044;8.716;2024-03-02T07:45:52;97915.00;;;11.47;62.74
25610;BME280;13479;49.044;8.716;2024-03-02T07:48:18;97847.31;;;12.87;58.38
25610;BME280;13479;49.044;8.716;2024-03-02T07:50:43;97843.13;;;14.08;54.61
25610;BME280;13479;49.044;8.716;2024-03-02T07:53:08;97872.75;;;15.09;50.46
25610;BME280;13479;49.044;8.716;2024-03-02T07:55:34;97892.75;;;15.79;47.23
25610;BME280;13479;49.044;8.716;2024-03-02T07:58:02;97905.81;;;16.52;46.17
25610;BME280;13479;49.044;8.716;2024-03-02T08:00:28;97922.91;;;17.62;43.00
25610;BME280;13479;49.044;8.716;2024-03-02T08:02:53;97934.91;;;18.06;40.46
25610;BME280;13479;49.044;8.716;2024-03-02T08:05:20;97931.78;;;17.96;40.35
25610;BME280;13479;49.044;8.716;2024-03-02T08:07:46;97923.72;;;18.23;40.29
25610;BME280;13479;49.044;8.716;2024-03-02T08:10:12;97923.25;;;18.52;39.45
25610;BME280;13479;49.044;8.716;2024-03-02T08:12:38;97927.53;;;18.80;38.55
25610;BME280;13479;49.044;8.716;2024-03-02T08:15:03;97927.97;;;19.23;37.78
25610;BME280;13479;49.044;8.716;2024-03-02T08:17:29;97929.59;;;19.95;36.65
25610;BME280;13479;49.044;8.716;2024-03-02T08:19:54;97935.94;;;20.70;35.10
25610;BME280;13479;49.044;8.716;2024-03-02T08:22:20;97945.81;;;21.13;34.50
25610;BME280;13479;49.044;8.716;2024-03-02T08:24:45;97938.53;;;21.63;33.27
25610;BME280;13479;49.044;8.716;2024-03-02T08:27:11;97935.78;;;21.02;33.52
25610;BME280;13479;49.044;8.716;2024-03-02T08:29:37;97924.53;;;20.67;33.96
25610;BME280;13479;49.044;8.716;2024-03-02T08:32:02;97922.69;;;21.05;33.95
25610;BME280;13479;49.044;8.716;2024-03-02T08:34:27;97927.97;;;21.12;33.15
25610;BME280;13479;49.044;8.716;2024-03-02T08:36:53;97923.13;;;20.65;33.68
25610;BME280;13479;49.044;8.716;2024-03-02T08:39:18;97907.28;;;20.75;33.97
25610;BME280;13479;49.044;8.716;2024-03-02T08:41:45;97914.72;;;21.10;33.48
25610;BME280;13479;49.044;8.716;2024-03-02T08:44:11;97913.97;;;21.34;32.76
25610;BME280;13479;49.044;8.716;2024-03-02T08:46:37;97913.63;;;21.00;32.94
25610;BME280;13479;49.044;8.716;2024-03-02T08:49:03;97911.94;;;21.17;32.70
25610;BME280;13479;49.044;8.716;2024-03-02T08:51:28;97916.56;;;21.28;32.53
25610;BME280;13479;49.044;8.716;2024-03-02T08:53:53;97917.53;;;21.46;32.70
25610;BME280;13479;49.044;8.716;2024-03-02T08:56:18;97916.84;;;21.81;31.96
25610;BME280;13479;49.044;8.716;2024-03-02T08:58:45;97917.44;;;21.83;31.50
25610;BME280;13479;49.044;8.716;2024-03-02T09:01:11;97909.22;;;21.78;31.64
25610;BME280;13479;49.044;8.716;2024-03-02T09:03:36;97908.06;;;21.98;31.48
25610;BME280;13479;49.044;8.716;2024-03-02T09:06:02;97911.72;;;22.03;31.70
25610;BME280;13479;49.044;8.716;2024-03-02T09:08:28;97910.63;;;21.81;31.40
25610;BME280;13479;49.044;8.716;2024-03-02T09:10:53;97898.16;;;21.80;32.04
25610;BME280;13479;49.044;8.716;2024-03-02T09:13:19;97902.47;;;21.69;32.04
25610;BME280;13479;49.044;8.716;2024-03-02T09:15:44;97899.31;;;21.72;31.88
25610;BME280;13479;49.044;8.716;2024-03-02T09:18:10;97898.19;;;22.03;31.79
25610;BME280;13479;49.044;8.716;2024-03-02T09:20:35;97893.34;;;22.29;30.96
25610;BME280;13479;49.044;8.716;2024-03-02T09:23:01;97895.47;;;22.39;30.51
25610;BME280;13479;49.044;8.716;2024-03-02T09:25:26;97896.75;;;22.72;30.38
25610;BME280;13479;49.044;8.716;2024-03-02T09:27:51;97892.44;;;23.00;30.30
25610;BME280;13479;49.044;8.716;2024-03-02T09:30:17;97895.81;;;23.36;29.73
25610;BME280;13479;49.044;8.716;2024-03-02T09:32:42;97892.09;;;24.05;29.26
25610;BME280;13479;49.044;8.716;2024-03-02T09:35:07;97899.78;;;24.48;28.30
25610;BME280;13479;49.044;8.716;2024-03-02T09:37:34;97899.97;;;24.63;27.79
25610;BME280;13479;49.044;8.716;2024-03-02T09:39:59;97904.41;;;24.30;28.26
25610;BME280;13479;49.044;8.716;2024-03-02T09:42:25;97904.75;;;24.00;28.67
25610;BME280;13479;49.044;8.716;2024-03-02T09:44:51;97908.53;;;23.99;28.69
25610;BME280;13479;49.044;8.716;2024-03-02T09:47:17;97896.06;;;23.81;28.61
25610;BME280;13479;49.044;8.716;2024-03-02T09:49:42;97889.97;;;23.73;28.74
25610;BME280;13479;49.044;8.716;2024-03-02T09:52:10;97882.72;;;23.79;29.42
25610;BME280;13479;49.044;8.716;2024-03-02T09:54:35;97883.22;;;23.76;29.35
25610;BME280;13479;49.044;8.716;2024-03-02T09:57:01;97884.06;;;24.11;28.79
25610;BME280;13479;49.044;8.716;2024-03-02T09:59:27;97885.97;;;24.72;28.25
25610;BME280;13479;49.044;8.716;2024-03-02T10:02:01;97889.97;;;24.86;27.96
25610;BME280;13479;49.044;8.716;2024-03-02T10:04:28;97887.25;;;25.08;28.01
25610;BME280;13479;49.044;8.716;2024-03-02T10:09:38;97860.56;;;23.65;29.36
25610;BME280;13479;49.044;8.716;2024-03-02T10:12:04;97852.69;;;23.29;29.69
25610;BME280;13479;49.044;8.716;2024-03-02T10:14:30;97857.97;;;22.95;30.17
25610;BME280;13479;49.044;8.716;2024-03-02T10:17:05;97859.50;;;22.39;30.50
25610;BME280;13479;49.044;8.716;2024-03-02T10:19:31;97844.84;;;21.75;31.48
25610;BME280;13479;49.044;8.716;2024-03-02T10:21:58;97834.06;;;21.75;31.32
25610;BME280;13479;49.044;8.716;2024-03-02T10:24:24;97814.91;;;21.77;32.54
25610;BME280;13479;49.044;8.716;2024-03-02T10:26:50;97809.25;;;22.02;32.21
25610;BME280;13479;49.044;8.716;2024-03-02T10:29:16;97808.63;;;22.24;32.30
25610;BME280;13479;49.044;8.716;2024-03-02T10:31:43;97823.75;;;22.60;30.77
25610;BME280;13479;49.044;8.716;2024-03-02T10:34:10;97820.66;;;22.97;30.35
25610;BME280;13479;49.044;8.716;2024-03-02T10:36:36;97837.00;;;23.03;29.87
25610;BME280;13479;49.044;8.716;2024-03-02T10:39:03;97847.38;;;22.65;29.93
25610;BME280;13479;49.044;8.716;2024-03-02T10:41:32;97850.47;;;22.33;30.06
25610;BME280;13479;49.044;8.716;2024-03-02T10:43:59;97838.13;;;22.13;30.41
25610;BME280;13479;49.044;8.716;2024-03-02T10:46:28;97816.44;;;22.08;32.42
25610;BME280;13479;49.044;8.716;2024-03-02T10:48:55;97811.34;;;22.12;31.21
25610;BME280;13479;49.044;8.716;2024-03-02T10:51:20;97813.38;;;21.93;31.12
25610;BME280;13479;49.044;8.716;2024-03-02T10:53:45;97816.56;;;21.89;30.86
25610;BME280;13479;49.044;8.716;2024-03-02T10:56:13;97810.69;;;21.81;30.66
25610;BME280;13479;49.044;8.716;2024-03-02T10:58:41;97806.03;;;21.57;31.75
25610;BME280;13479;49.044;8.716;2024-03-02T11:01:07;97795.16;;;21.64;31.53
25610;BME280;13479;49.044;8.716;2024-03-02T11:03:36;97793.22;;;21.29;31.84
25610;BME280;13479;49.044;8.716;2024-03-02T11:06:07;97773.38;;;21.23;32.67
25610;BME280;13479;49.044;8.716;2024-03-02T11:08:34;97757.69;;;21.44;32.21
25610;BME280;13479;49.044;8.716;2024-03-02T11:11:06;97780.03;;;21.75;30.51
25610;BME280;13479;49.044;8.716;2024-03-02T11:13:33;97788.00;;;21.70;30.63
25610;BME280;13479;49.044;8.716;2024-03-02T11:16:26;97801.84;;;21.50;30.17
25610;BME280;13479;49.044;8.716;2024-03-02T11:18:55;97804.56;;;21.07;30.85
25610;BME280;13479;49.044;8.716;2024-03-02T11:21:20;97776.34;;;20.91;31.76
25610;BME280;13479;49.044;8.716;2024-03-02T11:23:46;97777.69;;;20.70;31.56
25610;BME280;13479;49.044;8.716;2024-03-02T11:26:21;97752.75;;;20.56;33.47
25610;BME280;13479;49.044;8.716;2024-03-02T11:28:47;97747.06;;;20.64;32.37
25610;BME280;13479;49.044;8.716;2024-03-02T11:31:12;97735.53;;;20.57;31.44
25610;BME280;13479;49.044;8.716;2024-03-02T11:33:38;97735.38;;;20.21;32.22
25610;BME280;13479;49.044;8.716;2024-03-02T11:36:03;97732.16;;;19.75;33.25
25610;BME280;13479;49.044;8.716;2024-03-02T11:38:32;97714.84;;;18.95;35.61
25610;BME280;13479;49.044;8.716;2024-03-02T11:41:00;97707.84;;;18.56;35.64
25610;BME280;13479;49.044;8.716;2024-03-02T11:43:28;97690.69;;;18.18;37.09
25610;BME280;13479;49.044;8.716;2024-03-02T11:46:00;97694.53;;;17.83;38.06
25610;BME280;13479;49.044;8.716;2024-03-02T11:48:26;97688.44;;;17.49;38.61
25610;BME280;13479;49.044;8.716;2024-03-02T11:50:52;97688.88;;;17.19;39.15
25610;BME280;13479;49.044;8.716;2024-03-02T11:53:19;97679.22;;;16.98;39.12
25610;BME280;13479;49.044;8.716;2024-03-02T11:55:45;97663.31;;;16.70;39.86
25610;BME280;13479;49.044;8.716;2024-03-02T11:58:12;97663.09;;;16.64;40.49
25610;BME280;13479;49.044;8.716;2024-03-02T12:00:37;97649.28;;;16.74;40.04
25610;BME280;13479;49.044;8.716;2024-03-02T12:03:06;97655.06;;;16.78;39.38
25610;BME280;13479;49.044;8.716;2024-03-02T12:05:32;97645.56;;;16.68;40.47
25610;BME280;13479;49.044;8.716;2024-03-02T12:08:08;97645.59;;;16.75;40.64
25610;BME280;13479;49.044;8.716;2024-03-02T12:10:34;97633.63;;;16.78;41.05
25610;BME280;13479;49.044;8.716;2024-03-02T12:13:01;97642.06;;;16.88;40.46
25610;BME280;13479;49.044;8.716;2024-03-02T12:15:29;97635.66;;;16.62;41.08
25610;BME280;13479;49.044;8.716;2024-03-02T12:18:00;97631.13;;;16.56;41.95
25610;BME280;13479;49.044;8.716;2024-03-02T12:20:26;97631.97;;;16.43;41.44
25610;BME280;13479;49.044;8.716;2024-03-02T12:22:53;97626.16;;;16.40;41.98
25610;BME280;13479;49.044;8.716;2024-03-02T12:25:20;97629.47;;;16.42;42.22
25610;BME280;13479;49.044;8.716;2024-03-02T12:27:47;97627.00;;;16.40;41.95
25610;BME280;13479;49.044;8.716;2024-03-02T12:30:13;97620.63;;;16.34;41.61
25610;BME280;13479;49.044;8.716;2024-03-02T12:32:40;97619.56;;;16.29;42.97
25610;BME280;13479;49.044;8.716;2024-03-02T12:35:05;97622.47;;;16.47;41.96
25610;BME280;13479;49.044;8.716;2024-03-02T12:37:31;97637.31;;;16.63;40.30
25610;BME280;13479;49.044;8.716;2024-03-02T12:39:56;97643.09;;;16.60;40.21
25610;BME280;13479;49.044;8.716;2024-03-02T12:42:21;97650.69;;;16.57;40.18
25610;BME280;13479;49.044;8.716;2024-03-02T12:44:46;97653.38;;;16.63;40.61
25610;BME280;13479;49.044;8.716;2024-03-02T12:47:12;97648.00;;;16.50;40.52
25610;BME280;13479;49.044;8.716;2024-03-02T12:49:40;97629.09;;;16.58;41.15
25610;BME280;13479;49.044;8.716;2024-03-02T12:52:05;97633.81;;;16.56;40.69
25610;BME280;13479;49.044;8.716;2024-03-02T12:54:31;97635.44;;;16.30;40.57
25610;BME280;13479;49.044;8.716;2024-03-02T12:56:57;97631.88;;;16.10;41.44
25610;BME280;13479;49.044;8.716;2024-03-02T12:59:24;97601.19;;;16.05;42.18
25610;BME280;13479;49.044;8.716;2024-03-02T13:01:52;97604.28;;;16.16;41.90
25610;BME280;13479;49.044;8.716;2024-03-02T13:04:25;97600.16;;;16.06;42.42
25610;BME280;13479;49.044;8.716;2024-03-02T13:06:51;97608.88;;;16.29;40.97
25610;BME280;13479;49.044;8.716;2024-03-02T13:09:17;97615.66;;;16.31;41.07
25610;BME280;13479;49.044;8.716;2024-03-02T13:11:43;97600.00;;;16.35;41.88
25610;BME280;13479;49.044;8.716;2024-03-02T13:14:10;97609.69;;;16.43;41.43
25610;BME280;13479;49.044;8.716;2024-03-02T13:16:42;97610.09;;;16.40;41.47
25610;BME280;13479;49.044;8.716;2024-03-02T13:19:13;97609.69;;;16.49;41.20
25610;BME280;13479;49.044;8.716;2024-03-02T13:21:38;97618.75;;;16.42;41.20
25610;BME280;13479;49.044;8.716;2024-03-02T13:24:05;97600.84;;;16.35;41.81
25610;BME280;13479;49.044;8.716;2024-03-02T13:26:30;97613.00;;;16.38;41.36
25610;BME280;13479;49.044;8.716;2024-03-02T13:28:56;97597.72;;;16.39;41.33
25610;BME280;13479;49.044;8.716;2024-03-02T13:31:21;97594.63;;;16.28;41.97
25610;BME280;13479;49.044;8.716;2024-03-02T13:33:46;97587.44;;;16.35;42.24
25610;BME280;13479;49.044;8.716;2024-03-02T13:36:12;97584.78;;;16.42;41.96
25610;BME280;13479;49.044;8.716;2024-03-02T13:38:38;97586.84;;;16.47;42.05
25610;BME280;13479;49.044;8.716;2024-03-02T13:41:03;97609.31;;;16.59;40.62
25610;BME280;13479;49.044;8.716;2024-03-02T13:43:28;97598.59;;;16.46;41.67
25610;BME280;13479;49.044;8.716;2024-03-02T13:45:57;97602.28;;;16.58;40.97
25610;BME280;13479;49.044;8.716;2024-03-02T13:48:23;97622.47;;;16.54;40.28
25610;BME280;13479;49.044;8.716;2024-03-02T13:50:50;97617.53;;;16.51;40.66
25610;BME280;13479;49.044;8.716;2024-03-02T13:53:16;97607.44;;;16.60;41.16
25610;BME280;13479;49.044;8.716;2024-03-02T13:55:41;97609.09;;;16.54;40.74
25610;BME280;13479;49.044;8.716;2024-03-02T13:58:07;97609.31;;;16.59;40.26
25610;BME280;13479;49.044;8.716;2024-03-02T14:00:32;97617.94;;;16.61;39.94
25610;BME280;13479;49.044;8.716;2024-03-02T14:02:57;97613.41;;;16.48;40.64
25610;BME280;13479;49.044;8.716;2024-03-02T14:05:23;97600.03;;;16.55;40.91
25610;BME280;13479;49.044;8.716;2024-03-02T14:07:48;97602.09;;;16.66;39.96
25610;BME280;13479;49.044;8.716;2024-03-02T14:10:13;97597.97;;;16.64;40.41
25610;BME280;13479;49.044;8.716;2024-03-02T14:12:40;97587.03;;;16.72;40.67
25610;BME280;13479;49.044;8.716;2024-03-02T14:15:06;97598.16;;;16.82;39.89
25610;BME280;13479;49.044;8.716;2024-03-02T14:17:32;97601.06;;;16.61;39.88
25610;BME280;13479;49.044;8.716;2024-03-02T14:19:58;97606.00;;;16.71;40.32
25610;BME280;13479;49.044;8.716;2024-03-02T14:22:24;97602.50;;;16.77;40.19
25610;BME280;13479;49.044;8.716;2024-03-02T14:24:49;97612.19;;;16.85;39.90
25610;BME280;13479;49.044;8.716;2024-03-02T14:27:15;97603.53;;;16.76;40.22
25610;BME280;13479;49.044;8.716;2024-03-02T14:29:42;97605.56;;;16.74;40.00
25610;BME280;13479;49.044;8.716;2024-03-02T14:32:07;97601.69;;;16.63;39.68
25610;BME280;13479;49.044;8.716;2024-03-02T14:34:33;97590.75;;;16.64;39.96
25610;BME280;13479;49.044;8.716;2024-03-02T14:36:59;97582.53;;;16.66;39.93
25610;BME280;13479;49.044;8.716;2024-03-02T14:39:24;97584.34;;;16.86;40.11
25610;BME280;13479;49.044;8.716;2024-03-02T14:41:50;97603.94;;;17.00;37.74
25610;BME280;13479;49.044;8.716;2024-03-02T14:44:15;97601.25;;;16.86;38.95
25610;BME280;13479;49.044;8.716;2024-03-02T14:46:41;97605.59;;;17.01;37.52
25610;BME280;13479;49.044;8.716;2024-03-02T14:49:07;97597.75;;;16.86;37.88
25610;BME280;13479;49.044;8.716;2024-03-02T14:51:32;97598.56;;;16.86;38.56
25610;BME280;13479;49.044;8.716;2024-03-02T14:53:58;97598.38;;;16.81;38.09
25610;BME280;13479;49.044;8.716;2024-03-02T14:56:23;97590.13;;;16.76;38.60
25610;BME280;13479;49.044;8.716;2024-03-02T14:58:48;97589.09;;;16.83;38.33
25610;BME280;13479;49.044;8.716;2024-03-02T15:01:14;97586.00;;;16.80;38.28
25610;BME280;13479;49.044;8.716;2024-03-02T15:03:39;97594.03;;;16.80;37.75
25610;BME280;13479;49.044;8.716;2024-03-02T15:06:05;97592.00;;;16.68;37.94
25610;BME280;13479;49.044;8.716;2024-03-02T15:08:32;97579.63;;;16.54;38.16
25610;BME280;13479;49.044;8.716;2024-03-02T15:10:57;97575.09;;;16.34;38.49
25610;BME280;13479;49.044;8.716;2024-03-02T15:13:24;97557.38;;;16.27;39.05
25610;BME280;13479;49.044;8.716;2024-03-02T15:15:51;97538.81;;;16.12;39.61
25610;BME280;13479;49.044;8.716;2024-03-02T15:18:16;97539.66;;;16.26;39.02
25610;BME280;13479;49.044;8.716;2024-03-02T15:20:42;97542.34;;;16.32;38.86
25610;BME280;13479;49.044;8.716;2024-03-02T15:23:07;97534.69;;;16.23;39.40
25610;BME280;13479;49.044;8.716;2024-03-02T15:25:32;97531.00;;;16.03;39.65
25610;BME280;13479;49.044;8.716;2024-03-02T15:27:58;97514.50;;;15.86;40.22
25610;BME280;13479;49.044;8.716;2024-03-02T15:30:23;97511.94;;;15.71;40.54
25610;BME280;13479;49.044;8.716;2024-03-02T15:32:48;97497.53;;;15.66;40.60
25610;BME280;13479;49.044;8.716;2024-03-02T15:35:13;97492.78;;;15.48;41.23
25610;BME280;13479;49.044;8.716;2024-03-02T15:37:39;97491.16;;;15.53;41.30
25610;BME280;13479;49.044;8.716;2024-03-02T15:40:04;97489.53;;;15.59;41.02
25610;BME280;13479;49.044;8.716;2024-03-02T15:42:33;97493.00;;;15.59;40.94
25610;BME280;13479;49.044;8.716;2024-03-02T15:44:59;97495.25;;;15.56;41.10
25610;BME280;13479;49.044;8.716;2024-03-02T15:47:25;97490.94;;;15.55;40.93
25610;BME280;13479;49.044;8.716;2024-03-02T15:49:50;97484.94;;;15.46;41.17
25610;BME280;13479;49.044;8.716;2024-03-02T15:52:15;97483.50;;;15.43;41.19
25610;BME280;13479;49.044;8.716;2024-03-02T15:54:46;97482.25;;;15.39;41.28
25610;BME280;13479;49.044;8.716;2024-03-02T15:57:11;97482.66;;;15.36;41.68
25610;BME280;13479;49.044;8.716;2024-03-02T15:59:36;97479.19;;;15.42;41.74
25610;BME280;13479;49.044;8.716;2024-03-02T16:02:02;97480.00;;;15.36;42.00
25610;BME280;13479;49.044;8.716;2024-03-02T16:04:29;97478.94;;;15.31;42.93
25610;BME280;13479;49.044;8.716;2024-03-02T16:06:54;97476.44;;;15.22;43.59
25610;BME280;13479;49.044;8.716;2024-03-02T16:09:19;97478.06;;;15.17;44.16
25610;BME280;13479;49.044;8.716;2024-03-02T16:11:44;97473.13;;;15.13;44.41
25610;BME280;13479;49.044;8.716;2024-03-02T16:14:10;97476.41;;;15.16;43.88
25610;BME280;13479;49.044;8.716;2024-03-02T16:16:35;97477.59;;;15.06;44.17
25610;BME280;13479;49.044;8.716;2024-03-02T16:19:00;97473.28;;;15.05;44.05
25610;BME280;13479;49.044;8.716;2024-03-02T16:21:26;97476.38;;;15.02;44.89
25610;BME280;13479;49.044;8.716;2024-03-02T16:23:51;97466.03;;;14.92;45.22
25610;BME280;13479;49.044;8.716;2024-03-02T16:26:17;97469.31;;;14.88;45.33
25610;BME280;13479;49.044;8.716;2024-03-02T16:28:42;97473.00;;;14.87;45.84
25610;BME280;13479;49.044;8.716;2024-03-02T16:31:07;97471.34;;;14.86;45.52
25610;BME280;13479;49.044;8.716;2024-03-02T16:33:35;97474.81;;;14.79;45.33
25610;BME280;13479;49.044;8.716;2024-03-02T16:36:00;97469.38;;;14.66;45.74
25610;BME280;13479;49.044;8.716;2024-03-02T16:38:25;97466.41;;;14.54;45.81
25610;BME280;13479;49.044;8.716;2024-03-02T16:40:50;97467.00;;;14.49;46.19
25610;BME280;13479;49.044;8.716;2024-03-02T16:43:16;97466.13;;;14.42;46.93
25610;BME280;13479;49.044;8.716;2024-03-02T16:45:41;97462.19;;;14.38;47.47
25610;BME280;13479;49.044;8.716;2024-03-02T16:48:07;97463.81;;;14.32;47.78
25610;BME280;13479;49.044;8.716;2024-03-02T16:50:32;97458.03;;;14.29;48.75
25610;BME280;13479;49.044;8.716;2024-03-02T16:52:58;97454.44;;;14.15;48.94
25610;BME280;13479;49.044;8.716;2024-03-02T16:55:23;97452.69;;;14.00;48.43
25610;BME280;13479;49.044;8.716;2024-03-02T16:57:48;97451.31;;;13.83;48.96
25610;BME280;13479;49.044;8.716;2024-03-02T17:00:14;97454.94;;;13.75;49.02
25610;BME280;13479;49.044;8.716;2024-03-02T17:02:39;97457.97;;;13.72;48.86
25610;BME280;13479;49.044;8.716;2024-03-02T17:05:05;97448.72;;;13.68;49.18
25610;BME280;13479;49.044;8.716;2024-03-02T17:07:30;97454.44;;;13.65;49.39
25610;BME280;13479;49.044;8.716;2024-03-02T17:09:56;97447.59;;;13.55;50.60
25610;BME280;13479;49.044;8.716;2024-03-02T17:12:23;97443.38;;;13.46;50.92
25610;BME280;13479;49.044;8.716;2024-03-02T17:14:49;97443.28;;;13.54;50.76
25610;BME280;13479;49.044;8.716;2024-03-02T17:17:14;97439.69;;;13.69;50.19
25610;BME280;13479;49.044;8.716;2024-03-02T17:19:40;97450.34;;;13.69;49.52
25610;BME280;13479;49.044;8.716;2024-03-02T17:22:06;97460.16;;;13.62;49.47
25610;BME280;13479;49.044;8.716;2024-03-02T17:24:31;97464.84;;;13.59;49.16
25610;BME280;13479;49.044;8.716;2024-03-02T17:26:56;97479.09;;;13.67;48.71
25610;BME280;13479;49.044;8.716;2024-03-02T17:29:23;97512.59;;;13.76;47.04
25610;BME280;13479;49.044;8.716;2024-03-02T17:31:49;97531.78;;;14.08;45.29
25610;BME280;13479;49.044;8.716;2024-03-02T17:34:15;97542.13;;;14.18;44.80
25610;BME280;13479;49.044;8.716;2024-03-02T17:36:40;97551.84;;;14.26;44.28
25610;BME280;13479;49.044;8.716;2024-03-02T17:39:05;97547.91;;;14.21;44.49
25610;BME280;13479;49.044;8.716;2024-03-02T17:41:31;97545.75;;;14.32;44.04
25610;BME280;13479;49.044;8.716;2024-03-02T17:43:56;97539.38;;;14.33;44.18
25610;BME280;13479;49.044;8.716;2024-03-02T17:46:22;97522.72;;;14.31;44.56
25610;BME280;13479;49.044;8.716;2024-03-02T17:48:47;97527.19;;;14.24;44.35
25610;BME280;13479;49.044;8.716;2024-03-02T17:51:13;97503.28;;;14.15;44.80
25610;BME280;13479;49.044;8.716;2024-03-02T17:53:38;97496.38;;;14.21;44.13
25610;BME280;13479;49.044;8.716;2024-03-02T17:56:04;97483.59;;;14.16;44.20
25610;BME280;13479;49.044;8.716;2024-03-02T17:58:29;97483.72;;;14.30;44.03
25610;BME280;13479;49.044;8.716;2024-03-02T18:00:55;97478.31;;;14.23;43.81